createdAt,value
2022-11-09T10:29:28.499Z,99838.81
2022-11-09T10:32:01.360Z,99832.28
2022-11-09T10:34:33.948Z,99833.06
2022-11-09T10:37:14.937Z,99836.81
2022-11-09T10:40:03.465Z,99844.59
2022-11-09T10:45:33.458Z,99877.00
2022-11-09T10:48:01.464Z,99873.56
2022-11-09T10:50:48.999Z,99849.56
2022-11-09T10:53:24.977Z,99856.56
2022-11-09T10:56:10.136Z,99848.75
2022-11-09T10:58:39.364Z,99847.38
2022-11-09T11:01:12.577Z,99853.97
2022-11-09T11:03:40.101Z,99850.84
2022-11-09T11:06:12.460Z,99853.56
2022-11-09T11:08:41.451Z,99852.53
2022-11-09T11:11:32.758Z,99850.41
2022-11-09T11:14:04.130Z,99849.38
2022-11-09T11:16:35.786Z,99843.94
2022-11-09T11:19:03.491Z,99855.91
2022-11-09T11:21:30.834Z,99846.44
2022-11-09T11:24:20.220Z,99839.31
2022-11-09T11:26:50.500Z,99822.81
2022-11-09T11:29:46.782Z,99838.50
2022-11-09T11:32:18.794Z,99831.44
2022-11-09T11:34:59.719Z,99830.91
2022-11-09T11:37:43.030Z,99834.69
2022-11-09T11:40:33.687Z,99835.72
2022-11-09T11:43:14.870Z,99835.16
2022-11-09T11:46:02.765Z,99832.94
2022-11-09T11:49:07.688Z,99836.41
2022-11-09T11:51:42.896Z,99832.34
2022-11-09T11:54:14.663Z,99835.03
2022-11-09T11:57:23.282Z,99827.91
2022-11-09T12:00:21.884Z,99822.00
2022-11-09T12:03:20.914Z,99817.53
2022-11-09T12:05:58.841Z,99825.16
2022-11-09T12:08:32.852Z,99837.09
2022-11-09T12:11:10.357Z,99831.66
2022-11-09T12:13:48.440Z,99837.66
2022-11-09T12:16:29.684Z,99830.56
2022-11-09T12:19:16.760Z,99824.03
2022-11-09T12:22:04.112Z,99827.28
2022-11-09T12:24:55.132Z,99819.13
2022-11-09T12:27:46.443Z,99818.31
2022-11-09T12:30:24.339Z,99818.34
2022-11-09T12:33:01.392Z,99819.50
2022-11-09T12:35:40.962Z,99827.69
2022-11-09T12:38:17.032Z,99823.53
2022-11-09T12:41:06.447Z,99832.75
2022-11-09T12:43:49.989Z,99827.09
2022-11-09T12:46:19.489Z,99830.66
2022-11-09T12:48:48.300Z,99831.75
2022-11-09T12:51:15.966Z,99834.47
2022-11-09T12:53:43.091Z,99837.47
2022-11-09T12:56:20.809Z,99842.03
2022-11-09T12:58:47.359Z,99839.88
2022-11-09T13:01:33.813Z,99831.28
2022-11-09T13:04:02.992Z,99835.53
2022-11-09T13:06:33.564Z,99820.31
2022-11-09T13:09:05.132Z,99825.22
2022-11-09T13:11:52.433Z,99827.91
2022-11-09T13:14:22.084Z,99829.59
2022-11-09T13:16:54.334Z,99843.22
2022-11-09T13:19:35.780Z,99862.19
2022-11-09T13:22:08.811Z,99852.50
2022-11-09T13:24:56.194Z,99845.13
2022-11-09T13:27:46.529Z,99842.69
2022-11-09T13:30:25.247Z,99844.06
2022-11-09T13:33:06.842Z,99845.41
2022-11-09T13:35:42.125Z,99847.09
2022-11-09T13:38:19.102Z,99850.91
2022-11-09T13:40:48.581Z,99842.53
2022-11-09T13:43:19.374Z,99845.50
2022-11-09T13:46:00.867Z,99842.84
2022-11-09T13:48:36.686Z,99852.31
2022-11-09T13:51:16.657Z,99855.84
2022-11-09T13:53:59.516Z,99873.22
2022-11-09T13:56:40.162Z,99869.16
2022-11-09T13:59:27.990Z,99876.78
2022-11-09T14:01:57.777Z,99880.34
2022-11-09T14:04:26.064Z,99878.19
2022-11-09T14:07:05.269Z,99887.41
2022-11-09T14:09:37.789Z,99887.41
2022-11-09T14:12:48.587Z,99892.31
2022-11-09T14:15:33.427Z,99899.91
2022-11-09T14:18:11.969Z,99920.03
2022-11-09T14:21:02.862Z,99911.31
2022-11-09T14:23:32.135Z,99901.31
2022-11-09T14:25:58.857Z,99894.25
2022-11-09T14:28:31.436Z,99883.91
2022-11-09T14:30:58.049Z,99903.75
2022-11-09T14:33:28.385Z,99902.63
2022-11-09T14:35:59.377Z,99897.78
2022-11-09T14:38:30.441Z,99898.88
2022-11-09T14:40:57.543Z,99913.50
2022-11-09T14:43:41.085Z,99904.28
2022-11-09T14:46:16.012Z,99913.50
2022-11-09T14:48:51.894Z,99916.75
2022-11-09T14:51:19.639Z,99914.31
2022-11-09T14:53:47.435Z,99920.03
2022-11-09T14:56:17.622Z,99922.72
2022-11-09T14:58:45.561Z,99931.66
2022-11-09T15:01:17.890Z,99931.41
2022-11-09T15:03:45.612Z,99940.63
2022-11-09T15:06:15.016Z,99945.78
2022-11-09T15:09:00.347Z,99943.88
2022-11-09T15:11:38.523Z,99949.31
2022-11-09T15:14:20.077Z,99950.41
2022-11-09T15:16:48.280Z,99951.50
2022-11-09T15:19:27.909Z,99961.25
2022-11-09T15:21:54.517Z,99960.69
2022-11-09T15:24:21.690Z,99960.19
2022-11-09T15:26:50.838Z,99955.56
2022-11-09T15:29:35.533Z,99964.50
2022-11-09T15:32:13.268Z,99968.28
2022-11-09T15:34:43.232Z,99975.88
2022-11-09T15:37:48.275Z,99983.47
2022-11-09T15:40:18.034Z,99980.75
2022-11-09T15:42:46.511Z,99979.63
2022-11-09T15:45:20.098Z,99982.34
2022-11-09T15:47:55.404Z,99983.97
2022-11-09T15:50:27.400Z,99983.38
2022-11-09T15:52:53.911Z,99978.75
2022-11-09T15:55:23.011Z,99987.44
2022-11-09T15:57:50.864Z,99982.25
2022-11-09T16:00:21.264Z,99980.91
2022-11-09T16:02:48.741Z,99986.25
2022-11-09T16:05:15.889Z,99979.19
2022-11-09T16:07:49.319Z,99981.63
2022-11-09T16:10:17.933Z,99990.22
2022-11-09T16:12:46.489Z,99992.09
2022-11-09T16:15:14.102Z,100001.84
2022-11-09T16:17:40.593Z,100001.53
2022-11-09T16:20:07.649Z,100005.84
2022-11-09T16:22:34.181Z,100011.22
2022-11-09T16:25:00.848Z,100012.84
2022-11-09T16:27:49.157Z,100010.59
2022-11-09T16:30:14.288Z,100016.06
2022-11-09T16:32:40.958Z,100021.97
2022-11-09T16:35:26.058Z,100016.22
2022-11-09T16:37:55.468Z,100020.84
2022-11-09T16:40:22.735Z,100025.94
2022-11-09T16:42:51.316Z,100019.41
2022-11-09T16:45:17.978Z,100027.22
2022-11-09T16:47:46.713Z,100028.53
2022-11-09T16:50:14.049Z,100034.28
2022-11-09T16:52:40.628Z,100021.78
2022-11-09T16:55:09.465Z,100025.84
2022-11-09T16:57:36.053Z,100033.13
2022-11-09T17:00:02.623Z,100046.88
2022-11-09T17:02:29.235Z,100044.44
2022-11-09T17:04:55.688Z,100044.66
2022-11-09T17:07:22.404Z,100042.19
2022-11-09T17:09:48.929Z,100046.97
2022-11-09T17:12:15.477Z,100047.47
2022-11-09T17:14:42.067Z,100043.66
2022-11-09T17:17:08.599Z,100050.38
2022-11-09T17:19:36.417Z,100046.84
2022-11-09T17:22:04.615Z,100061.16
2022-11-09T17:24:31.765Z,100062.78
2022-11-09T17:26:58.389Z,100059.00
2022-11-09T17:29:24.866Z,100053.72
2022-11-09T17:31:51.377Z,100067.47
2022-11-09T17:34:17.867Z,100052.88
2022-11-09T17:39:30.884Z,100063.72
2022-11-09T17:41:57.413Z,100059.94
2022-11-09T17:44:24.077Z,100061.06
2022-11-09T17:46:50.565Z,100063.78
2022-11-09T17:49:17.083Z,100066.19
2022-11-09T17:51:43.748Z,100070.28
2022-11-09T17:54:10.238Z,100077.09
2022-11-09T17:56:36.732Z,100084.97
2022-11-09T17:59:05.513Z,100080.09
2022-11-09T18:01:37.844Z,100077.91
2022-11-09T18:04:08.849Z,100093.34
2022-11-09T18:06:35.520Z,100102.84
2022-11-09T18:11:49.198Z,100120.19
2022-11-09T18:14:16.081Z,100120.47
2022-11-09T18:16:42.612Z,100125.06
2022-11-09T18:19:09.138Z,100122.06
2022-11-09T18:21:35.720Z,100123.97
2022-11-09T18:24:02.236Z,100126.66
2022-11-09T18:26:28.942Z,100119.59
2022-11-09T18:28:56.610Z,100115.84
2022-11-09T18:31:23.397Z,100116.97
2022-11-09T18:33:50.748Z,100121.81
2022-11-09T18:36:19.363Z,100116.41
2022-11-09T18:38:46.352Z,100114.78
2022-11-09T18:41:17.773Z,100134.25
2022-11-09T18:43:45.371Z,100127.22
2022-11-09T18:46:14.254Z,100142.09
2022-11-09T18:48:40.936Z,100142.63
2022-11-09T18:51:07.920Z,100146.50
2022-11-09T18:53:43.854Z,100152.56
2022-11-09T18:56:18.766Z,100156.00
2022-11-09T18:58:46.325Z,100162.44
2022-11-09T19:01:13.468Z,100159.72
2022-11-09T19:03:40.426Z,100169.16
2022-11-09T19:06:18.999Z,100165.13
2022-11-09T19:09:04.736Z,100165.13
2022-11-09T19:11:32.353Z,100174.34
2022-11-09T19:13:59.397Z,100184.06
2022-11-09T19:16:27.002Z,100184.59
2022-11-09T19:18:53.745Z,100184.59
2022-11-09T19:21:48.304Z,100189.59
2022-11-09T19:24:17.597Z,100193.03
2022-11-09T19:26:44.451Z,100196.22
2022-11-09T19:29:12.527Z,100188.44
2022-11-09T19:31:43.254Z,100189.25
2022-11-09T19:34:21.419Z,100196.66
2022-11-09T19:36:48.282Z,100193.56
2022-11-09T19:39:15.913Z,100202.53
2022-11-09T19:41:43.001Z,100204.13
2022-11-09T19:44:12.996Z,100214.97
2022-11-09T19:46:40.152Z,100212.25
2022-11-09T19:49:07.393Z,100223.09
2022-11-09T19:51:34.849Z,100208.50
2022-11-09T19:54:03.609Z,100209.31
2022-11-09T19:56:32.090Z,100225.78
2022-11-09T19:59:01.725Z,100237.50
2022-11-09T20:01:28.753Z,100233.44
2022-11-09T20:03:57.380Z,100246.97
2022-11-09T20:06:25.515Z,100248.03
2022-11-09T20:08:52.529Z,100251.78
2022-11-09T20:11:40.678Z,100253.44
2022-11-09T20:14:08.628Z,100263.44
